Time;durP1;ratioP1;P1;durP2;ratioP2;P2;SDS_P1;SDS_P2;PMS_P1;PMS_P2;Temp;Humidity;BMP_temperature;BMP_pressure;BME280_temperature;BME280_humidity;BME280_pressure;Samples;Min_cycle;Max_cycle;Signal;HPM_P1;HPM_P2
2023/12/26 00:01:34;;;;;;;1.83;0.40;;;9.50;99.90;;;;;;4999101;28;20176;-84
2023/12/26 00:04:00;;;;;;;1.67;0.70;;;9.50;99.90;;;;;;4998014;28;20207;-84
2023/12/26 00:06:26;;;;;;;0.50;0.50;;;9.40;99.90;;;;;;5012841;28;20215;-84
2023/12/26 00:08:51;;;;;;;1.50;0.60;;;9.40;99.90;;;;;;4980264;28;20633;-84
2023/12/26 00:11:17;;;;;;;0.67;0.40;;;9.40;99.90;;;;;;4977451;28;20175;-84
2023/12/26 00:13:42;;;;;;;0.50;0.50;;;9.50;99.90;;;;;;4999248;28;20191;-85
2023/12/26 00:16:08;;;;;;;0.40;0.30;;;9.40;99.90;;;;;;4998427;28;20266;-84
2023/12/26 00:18:33;;;;;;;0.33;0.30;;;9.40;99.90;;;;;;5000462;28;20669;-84
2023/12/26 00:20:59;;;;;;;0.40;0.40;;;9.30;99.90;;;;;;5000480;28;20829;-84
2023/12/26 00:23:25;;;;;;;0.40;0.33;;;9.30;99.90;;;;;;4992471;28;20235;-84
2023/12/26 00:25:51;;;;;;;0.40;0.30;;;;;;;;;;4982489;28;20171;-84
2023/12/26 00:28:19;;;;;;;0.40;0.30;;;9.30;99.90;;;;;;5000362;28;20423;-84
2023/12/26 00:30:45;;;;;;;0.70;0.50;;;9.20;99.90;;;;;;4982928;28;20431;-84
2023/12/26 00:33:10;;;;;;;0.50;0.40;;;9.20;99.90;;;;;;4999208;28;20245;-84
2023/12/26 00:35:36;;;;;;;0.40;0.40;;;9.20;99.90;;;;;;4982035;28;20213;-84
2023/12/26 00:38:01;;;;;;;2.73;1.03;;;9.10;99.90;;;;;;4979995;28;20199;-86
2023/12/26 00:40:27;;;;;;;1.00;0.60;;;9.20;99.90;;;;;;4991323;28;20183;-86
2023/12/26 00:42:53;;;;;;;0.50;0.40;;;9.20;99.90;;;;;;4993381;28;20177;-85
2023/12/26 00:45:22;;;;;;;0.53;0.50;;;9.20;99.90;;;;;;4996450;28;20482;-86
2023/12/26 00:47:50;;;;;;;0.80;0.52;;;9.20;99.90;;;;;;4998833;28;20171;-86
2023/12/26 00:50:16;;;;;;;0.40;0.35;;;9.10;99.90;;;;;;4992959;28;20186;-86
2023/12/26 00:52:42;;;;;;;0.40;0.40;;;9.10;99.90;;;;;;4998766;28;20183;-84
2023/12/26 00:55:08;;;;;;;0.50;0.50;;;9.40;99.90;;;;;;4981908;28;20199;-84
2023/12/26 00:57:34;;;;;;;0.43;0.40;;;9.20;99.90;;;;;;4985247;28;20226;-84
2023/12/26 01:00:00;;;;;;;0.70;0.40;;;9.10;99.90;;;;;;5002743;28;20175;-84
2023/12/26 01:02:26;;;;;;;0.60;0.32;;;9.40;99.90;;;;;;5001583;28;20179;-84
2023/12/26 01:04:51;;;;;;;0.40;0.40;;;9.10;99.90;;;;;;4997799;28;20195;-84
2023/12/26 01:07:17;;;;;;;0.40;0.30;;;9.10;99.90;;;;;;4992054;28;21043;-84
2023/12/26 01:09:43;;;;;;;0.40;0.40;;;9.10;99.90;;;;;;4986741;28;20183;-84
2023/12/26 01:12:09;;;;;;;0.60;0.50;;;9.10;99.90;;;;;;4994892;28;20186;-83
2023/12/26 01:14:35;;;;;;;0.40;0.30;;;9.10;99.90;;;;;;4985339;28;20454;-84
2023/12/26 01:17:00;;;;;;;0.65;0.45;;;9.10;99.90;;;;;;4998601;28;20209;-84
2023/12/26 01:19:26;;;;;;;0.40;0.30;;;9.10;99.90;;;;;;4999963;28;21215;-84
2023/12/26 01:21:52;;;;;;;0.43;0.40;;;;;;;;;;5017025;28;20187;-84
2023/12/26 01:24:17;;;;;;;0.40;0.30;;;9.10;99.90;;;;;;4999992;28;20195;-84
2023/12/26 01:26:43;;;;;;;0.50;0.40;;;9.00;99.90;;;;;;4999338;28;20520;-83
2023/12/26 01:29:08;;;;;;;0.53;0.53;;;9.30;99.90;;;;;;5000983;28;20507;-84
2023/12/26 01:31:37;;;;;;;1.83;0.77;;;9.00;99.90;;;;;;5024221;28;20184;-85
2023/12/26 01:34:03;;;;;;;0.60;0.40;;;9.00;99.90;;;;;;4989262;28;20253;-83
2023/12/26 01:36:29;;;;;;;1.05;0.50;;;9.00;99.90;;;;;;5002249;28;20183;-86
2023/12/26 01:38:56;;;;;;;3.30;0.73;;;9.00;99.90;;;;;;5000429;28;20574;-84
2023/12/26 01:41:21;;;;;;;1.90;0.77;;;9.00;99.90;;;;;;5001859;28;21003;-86
2023/12/26 01:43:47;;;;;;;0.70;0.60;;;9.00;99.90;;;;;;5011643;28;20264;-86
2023/12/26 01:46:13;;;;;;;0.87;0.70;;;9.00;99.90;;;;;;4997457;28;20231;-86
2023/12/26 01:48:39;;;;;;;0.93;0.70;;;9.20;99.90;;;;;;4997707;28;20187;-84
2023/12/26 01:51:09;;;;;;;0.40;0.40;;;9.00;99.90;;;;;;4998117;28;20197;-84
2023/12/26 01:53:38;;;;;;;3.05;0.70;;;9.00;99.90;;;;;;5001225;28;20203;-86
2023/12/26 01:56:07;;;;;;;0.95;0.60;;;9.00;99.90;;;;;;4999034;28;20179;-84
2023/12/26 01:58:33;;;;;;;0.40;0.40;;;8.90;99.90;;;;;;4991523;28;20199;-84
2023/12/26 02:00:58;;;;;;;0.97;0.40;;;8.90;99.90;;;;;;4997772;28;20191;-84
2023/12/26 02:03:26;;;;;;;5.70;0.70;;;8.90;99.90;;;;;;4998632;28;20187;-85
2023/12/26 02:05:52;;;;;;;0.60;0.60;;;8.90;99.90;;;;;;4999884;28;20575;-85
2023/12/26 02:08:18;;;;;;;1.50;0.67;;;8.90;99.90;;;;;;4997252;28;20197;-85
2023/12/26 02:10:43;;;;;;;0.60;0.50;;;8.90;99.90;;;;;;4983899;28;20437;-84
2023/12/26 02:13:09;;;;;;;2.53;0.90;;;8.90;99.90;;;;;;4984714;28;20244;-85
2023/12/26 02:15:34;;;;;;;0.70;0.70;;;8.90;99.90;;;;;;4998579;28;20274;-84
2023/12/26 02:18:00;;;;;;;5.60;0.50;;;8.90;99.90;;;;;;4997809;28;20215;-84
2023/12/26 02:20:26;;;;;;;0.80;0.80;;;8.90;99.90;;;;;;4998710;28;20175;-84
2023/12/26 02:22:51;;;;;;;1.47;0.60;;;8.90;99.90;;;;;;4998837;28;20187;-85
2023/12/26 02:25:19;;;;;;;3.13;0.97;;;8.90;99.90;;;;;;4999697;28;20288;-84
2023/12/26 02:27:45;;;;;;;0.40;0.38;;;8.90;99.90;;;;;;4999421;28;20199;-85
2023/12/26 02:30:12;;;;;;;0.70;0.40;;;8.90;99.90;;;;;;4995574;28;20198;-84
2023/12/26 02:32:39;;;;;;;0.65;0.50;;;8.90;99.90;;;;;;4997577;28;20183;-84
2023/12/26 02:35:06;;;;;;;4.18;1.05;;;8.90;99.90;;;;;;4998599;28;20225;-85
2023/12/26 02:37:32;;;;;;;1.08;0.40;;;8.90;99.90;;;;;;4987393;28;20223;-85
2023/12/26 02:39:58;;;;;;;0.60;0.52;;;8.90;99.90;;;;;;5000653;28;20183;-86
2023/12/26 02:42:29;;;;;;;0.50;0.40;;;8.90;99.90;;;;;;4984119;28;20179;-86
2023/12/26 02:44:56;;;;;;;0.60;0.50;;;8.90;99.90;;;;;;5001029;28;20281;-84
2023/12/26 02:47:21;;;;;;;1.02;0.73;;;8.90;99.90;;;;;;4981582;28;20304;-84
2023/12/26 02:49:47;;;;;;;0.87;0.73;;;8.90;99.90;;;;;;4998832;28;20222;-84
2023/12/26 02:52:12;;;;;;;0.60;0.50;;;8.90;99.90;;;;;;4992083;28;20187;-84
2023/12/26 02:54:38;;;;;;;0.70;0.60;;;8.90;99.90;;;;;;5000665;28;20203;-84
2023/12/26 02:57:04;;;;;;;0.63;0.43;;;8.90;99.90;;;;;;4999184;28;20187;-84
2023/12/26 02:59:29;;;;;;;0.60;0.50;;;8.90;99.90;;;;;;4980859;28;20222;-84
2023/12/26 03:01:55;;;;;;;0.70;0.60;;;8.90;99.90;;;;;;4998738;28;20217;-84
2023/12/26 03:04:20;;;;;;;0.87;0.33;;;9.00;99.90;;;;;;4998372;28;20264;-85
2023/12/26 03:06:46;;;;;;;0.80;0.60;;;8.90;99.90;;;;;;4989745;28;20188;-84
2023/12/26 03:09:11;;;;;;;0.70;0.47;;;8.90;99.90;;;;;;4993185;28;20194;-84
2023/12/26 03:11:37;;;;;;;1.00;0.90;;;9.00;99.90;;;;;;4976986;28;20225;-84
2023/12/26 03:14:03;;;;;;;1.50;0.70;;;8.90;99.90;;;;;;4978891;28;20218;-84
2023/12/26 03:16:28;;;;;;;1.37;0.73;;;9.00;99.90;;;;;;4978473;28;20358;-84
2023/12/26 03:18:54;;;;;;;0.93;0.70;;;9.00;99.90;;;;;;4996567;28;20227;-84
2023/12/26 03:21:20;;;;;;;18.03;1.20;;;9.00;99.90;;;;;;4996254;28;20180;-84
2023/12/26 03:23:46;;;;;;;2.30;1.20;;;9.00;99.90;;;;;;4977104;28;20281;-84
2023/12/26 03:26:12;;;;;;;0.73;0.68;;;9.00;99.90;;;;;;4994520;28;20187;-86
2023/12/26 03:28:38;;;;;;;1.23;1.13;;;9.00;99.90;;;;;;4975657;28;20180;-86
2023/12/26 03:31:04;;;;;;;0.83;0.47;;;9.00;99.90;;;;;;5008718;28;20419;-86
2023/12/26 03:33:30;;;;;;;1.88;0.60;;;8.90;99.90;;;;;;4981061;28;20207;-86
2023/12/26 03:35:56;;;;;;;6.00;0.70;;;9.00;99.90;;;;;;5013147;28;20186;-86
2023/12/26 03:38:22;;;;;;;1.40;0.90;;;9.30;99.90;;;;;;4996648;28;20462;-86
2023/12/26 03:40:48;;;;;;;0.93;0.60;;;9.00;99.90;;;;;;4997701;28;20179;-86
2023/12/26 03:43:16;;;;;;;0.63;0.57;;;9.00;99.90;;;;;;4994904;28;20211;-87
2023/12/26 03:45:42;;;;;;;1.02;0.50;;;9.00;99.90;;;;;;4977804;28;20191;-86
2023/12/26 03:48:07;;;;;;;0.83;0.60;;;9.00;99.90;;;;;;4981293;28;20179;-87
2023/12/26 03:50:33;;;;;;;9.67;1.40;;;9.00;99.90;;;;;;4976913;28;20187;-87
2023/12/26 03:52:59;;;;;;;2.53;0.90;;;9.00;99.90;;;;;;4996673;28;20189;-86
2023/12/26 03:55:25;;;;;;;0.68;0.40;;;;;;;;;;4977592;28;20298;-86
2023/12/26 03:57:51;;;;;;;9.00;1.40;;;9.10;99.90;;;;;;4979532;28;20250;-87
2023/12/26 04:00:16;;;;;;;0.80;0.60;;;9.10;99.90;;;;;;4981009;28;20430;-87
2023/12/26 04:02:42;;;;;;;0.80;0.40;;;9.10;99.90;;;;;;4996613;28;20186;-87
2023/12/26 04:05:11;;;;;;;1.27;0.83;;;9.10;99.90;;;;;;4976836;28;20200;-87
2023/12/26 04:07:37;;;;;;;2.03;0.80;;;9.10;99.90;;;;;;4963943;28;20415;-86
2023/12/26 04:10:03;;;;;;;2.67;0.50;;;9.10;99.90;;;;;;4993852;28;20179;-86
2023/12/26 04:12:29;;;;;;;0.70;0.55;;;9.10;99.90;;;;;;4997342;28;20179;-86
2023/12/26 04:14:54;;;;;;;3.63;1.13;;;9.10;99.90;;;;;;4979563;28;20226;-86
2023/12/26 04:17:21;;;;;;;1.90;0.77;;;9.10;99.90;;;;;;4995772;28;20665;-86
2023/12/26 04:19:47;;;;;;;0.93;0.47;;;9.10;99.90;;;;;;4978501;28;20423;-87
2023/12/26 04:22:12;;;;;;;2.38;0.47;;;9.10;99.90;;;;;;4980309;28;20177;-86
2023/12/26 04:24:39;;;;;;;1.43;0.83;;;9.10;99.90;;;;;;4996922;28;21153;-86
2023/12/26 04:27:06;;;;;;;1.33;0.70;;;9.10;99.90;;;;;;4976762;28;20178;-86
2023/12/26 04:29:32;;;;;;;0.65;0.60;;;9.50;99.90;;;;;;4980357;28;20250;-86
2023/12/26 04:31:58;;;;;;;2.45;0.93;;;9.10;99.90;;;;;;4999679;28;20180;-85
2023/12/26 04:34:24;;;;;;;1.47;0.70;;;;;;;;;;4994305;28;20355;-85
2023/12/26 04:36:51;;;;;;;0.70;0.70;;;9.10;99.90;;;;;;4996398;28;20175;-86
2023/12/26 04:39:17;;;;;;;3.38;0.70;;;9.10;99.90;;;;;;4995918;28;20209;-84
2023/12/26 04:41:46;;;;;;;4.53;1.20;;;9.10;99.90;;;;;;4979982;28;20920;-84
2023/12/26 04:44:12;;;;;;;1.75;1.00;;;9.10;99.90;;;;;;4997482;28;20229;-84
2023/12/26 04:46:37;;;;;;;0.80;0.60;;;9.10;99.90;;;;;;4999520;28;20514;-83
2023/12/26 04:49:03;;;;;;;1.73;0.70;;;9.10;99.90;;;;;;4985082;28;20190;-84
2023/12/26 04:51:30;;;;;;;1.40;0.50;;;9.10;99.90;;;;;;4998914;28;20183;-84
2023/12/26 04:53:56;;;;;;;1.35;0.95;;;9.10;99.90;;;;;;4981476;28;20221;-84
2023/12/26 04:56:21;;;;;;;0.77;0.50;;;9.10;99.90;;;;;;4998672;28;20199;-83
2023/12/26 04:58:48;;;;;;;0.70;0.30;;;9.10;99.90;;;;;;4993928;28;20195;-84
2023/12/26 05:01:14;;;;;;;1.35;0.98;;;9.10;99.90;;;;;;4996798;28;20179;-84
2023/12/26 05:03:40;;;;;;;1.38;0.55;;;9.00;99.90;;;;;;4998365;28;20210;-83
2023/12/26 05:06:06;;;;;;;2.97;1.23;;;9.00;99.90;;;;;;4996265;28;20196;-84
2023/12/26 05:08:31;;;;;;;1.00;0.63;;;9.00;99.90;;;;;;4991567;28;20199;-85
2023/12/26 05:10:57;;;;;;;1.33;0.93;;;9.00;99.90;;;;;;4980556;28;20191;-83
2023/12/26 05:13:22;;;;;;;3.40;1.23;;;8.90;99.90;;;;;;4997630;28;20194;-85
2023/12/26 05:15:49;;;;;;;1.43;1.10;;;8.90;99.90;;;;;;5027961;28;20184;-85
2023/12/26 05:18:14;;;;;;;6.72;0.73;;;8.90;99.90;;;;;;4992847;28;20194;-85
2023/12/26 05:20:40;;;;;;;0.73;0.50;;;8.90;99.90;;;;;;5002233;28;20202;-83
2023/12/26 05:23:06;;;;;;;6.73;1.40;;;;;;;;;;4998308;28;20243;-84
2023/12/26 05:25:32;;;;;;;0.60;0.60;;;9.00;99.90;;;;;;4978137;28;20768;-83
2023/12/26 05:27:57;;;;;;;3.87;0.87;;;9.00;99.90;;;;;;4997566;28;20213;-84
2023/12/26 05:30:23;;;;;;;0.73;0.63;;;8.90;99.90;;;;;;5009317;28;20183;-84
2023/12/26 05:32:48;;;;;;;3.13;1.43;;;8.90;99.90;;;;;;4977894;28;20202;-83
2023/12/26 05:35:14;;;;;;;2.10;0.50;;;8.90;99.90;;;;;;4974463;28;20215;-83
2023/12/26 05:37:40;;;;;;;1.07;0.80;;;8.90;99.90;;;;;;4978769;28;20206;-83
2023/12/26 05:40:06;;;;;;;0.60;0.50;;;8.90;99.90;;;;;;4993926;28;20187;-84
2023/12/26 05:42:31;;;;;;;2.97;0.90;;;8.90;99.90;;;;;;5015550;28;20213;-84
2023/12/26 05:44:57;;;;;;;3.20;1.00;;;8.90;99.90;;;;;;5001121;28;20446;-84
2023/12/26 05:47:22;;;;;;;0.53;0.47;;;8.90;99.90;;;;;;5007822;28;20229;-84
2023/12/26 05:49:48;;;;;;;3.00;1.30;;;8.90;99.90;;;;;;4982308;28;20179;-85
2023/12/26 05:52:13;;;;;;;1.47;0.50;;;8.90;99.90;;;;;;5020275;28;20498;-85
2023/12/26 05:54:39;;;;;;;1.00;0.73;;;8.90;99.90;;;;;;5002479;28;20238;-84
2023/12/26 05:57:04;;;;;;;8.37;1.43;;;8.90;99.90;;;;;;5012411;28;20192;-84
2023/12/26 05:59:30;;;;;;;2.40;1.13;;;8.90;99.90;;;;;;5001561;28;20215;-84
2023/12/26 06:01:55;;;;;;;0.60;0.60;;;8.90;99.90;;;;;;4992787;28;20176;-83
2023/12/26 06:04:21;;;;;;;5.80;1.00;;;8.90;99.90;;;;;;4996821;28;20203;-85
2023/12/26 06:06:46;;;;;;;6.13;1.40;;;8.90;99.90;;;;;;4998404;28;20171;-83
2023/12/26 06:09:13;;;;;;;2.00;0.67;;;8.90;99.90;;;;;;5013373;28;20168;-85
2023/12/26 06:11:38;;;;;;;1.73;1.05;;;8.90;99.90;;;;;;4995910;28;20179;-84
2023/12/26 06:14:05;;;;;;;1.37;0.90;;;8.90;99.90;;;;;;4984723;28;20275;-84
2023/12/26 06:16:31;;;;;;;3.25;1.42;;;8.90;99.90;;;;;;4997841;28;20172;-84
2023/12/26 06:18:58;;;;;;;5.57;1.48;;;8.90;99.90;;;;;;4999483;28;20277;-85
2023/12/26 06:21:23;;;;;;;4.88;1.10;;;8.90;99.90;;;;;;5001431;28;20884;-83
2023/12/26 06:23:49;;;;;;;4.37;2.00;;;8.80;99.90;;;;;;4985191;28;20199;-85
2023/12/26 06:26:16;;;;;;;5.63;2.13;;;8.90;99.90;;;;;;5002100;28;20209;-85
2023/12/26 06:28:41;;;;;;;0.70;0.70;;;8.80;99.90;;;;;;4996823;28;20170;-84
2023/12/26 06:31:13;;;;;;;3.53;0.77;;;8.90;99.90;;;;;;4987861;28;20183;-85
2023/12/26 06:33:39;;;;;;;1.17;0.77;;;8.90;99.90;;;;;;5002716;28;20215;-85
2023/12/26 06:36:05;;;;;;;6.60;0.90;;;8.90;99.90;;;;;;5001919;28;20193;-82
2023/12/26 06:38:30;;;;;;;0.97;0.97;;;8.90;99.90;;;;;;4983900;28;20209;-85
2023/12/26 06:40:56;;;;;;;2.83;1.17;;;8.90;99.90;;;;;;4997842;28;20175;-84
2023/12/26 06:43:21;;;;;;;1.70;0.60;;;8.90;99.90;;;;;;4993772;28;20203;-83
2023/12/26 06:45:47;;;;;;;0.40;0.40;;;8.90;99.90;;;;;;4992120;28;20209;-83
2023/12/26 06:48:12;;;;;;;1.27;0.40;;;8.90;99.90;;;;;;4990606;28;20273;-84
2023/12/26 06:50:37;;;;;;;1.80;0.83;;;8.90;99.90;;;;;;4987947;28;20278;-84
2023/12/26 06:53:03;;;;;;;1.33;0.93;;;8.90;99.90;;;;;;5006998;28;20600;-84
2023/12/26 06:55:29;;;;;;;1.23;0.50;;;8.90;99.90;;;;;;5008268;28;20207;-84
2023/12/26 06:57:55;;;;;;;1.33;1.00;;;8.90;99.90;;;;;;4994372;28;20218;-84
2023/12/26 07:00:21;;;;;;;2.63;0.90;;;9.00;99.90;;;;;;4992897;28;20185;-84
2023/12/26 07:02:47;;;;;;;2.50;1.67;;;9.00;99.90;;;;;;4990098;28;20714;-83
2023/12/26 07:05:12;;;;;;;1.03;0.93;;;9.00;99.90;;;;;;4988205;28;20219;-83
2023/12/26 07:07:38;;;;;;;3.40;0.50;;;9.00;99.90;;;;;;4984160;28;20188;-83
2023/12/26 07:10:04;;;;;;;0.70;0.40;;;9.00;99.90;;;;;;4985236;28;20556;-84
2023/12/26 07:12:29;;;;;;;1.60;0.53;;;8.90;99.90;;;;;;5008063;28;20245;-83
2023/12/26 07:14:55;;;;;;;2.33;0.77;;;8.90;99.90;;;;;;4989997;28;20596;-83
2023/12/26 07:17:20;;;;;;;1.90;0.40;;;9.00;99.90;;;;;;4976129;28;20179;-83
2023/12/26 07:19:46;;;;;;;0.60;0.60;;;9.10;99.90;;;;;;4990926;28;20211;-83
2023/12/26 07:22:11;;;;;;;0.60;0.60;;;9.00;99.90;;;;;;4987938;28;20838;-83
2023/12/26 07:24:37;;;;;;;0.97;0.80;;;9.00;99.90;;;;;;4965823;28;20203;-83
2023/12/26 07:27:02;;;;;;;5.20;1.43;;;9.00;99.90;;;;;;4964165;28;20188;-83
2023/12/26 07:29:28;;;;;;;1.43;0.93;;;8.90;99.90;;;;;;4983258;28;20222;-83
2023/12/26 07:31:54;;;;;;;5.05;0.88;;;8.90;99.90;;;;;;4974364;28;20187;-83
2023/12/26 07:34:20;;;;;;;2.33;0.80;;;9.00;99.90;;;;;;4984595;28;20238;-83
2023/12/26 07:36:45;;;;;;;1.07;0.60;;;9.00;99.90;;;;;;5001481;28;20442;-83
2023/12/26 07:39:11;;;;;;;7.73;1.07;;;9.00;99.90;;;;;;4986212;28;20688;-83
2023/12/26 07:41:36;;;;;;;4.97;0.70;;;9.00;99.90;;;;;;4985974;28;20548;-83
2023/12/26 07:44:02;;;;;;;4.67;1.77;;;9.00;99.90;;;;;;4970212;28;20251;-84
2023/12/26 07:46:28;;;;;;;0.80;0.70;;;9.00;99.90;;;;;;4978184;28;20183;-83
2023/12/26 07:48:53;;;;;;;1.57;0.80;;;9.00;99.90;;;;;;4989439;28;20620;-83
2023/12/26 07:51:19;;;;;;;2.37;0.90;;;9.00;99.90;;;;;;4989962;28;20225;-84
2023/12/26 07:53:46;;;;;;;4.43;0.90;;;9.10;99.90;;;;;;5001305;28;20324;-83
2023/12/26 07:56:11;;;;;;;1.20;0.80;;;9.10;99.90;;;;;;4974095;28;20187;-83
2023/12/26 07:58:38;;;;;;;2.77;0.63;;;9.10;99.90;;;;;;4984678;28;20302;-83
2023/12/26 08:01:03;;;;;;;1.27;1.17;;;9.10;99.90;;;;;;4982295;28;20658;-83
2023/12/26 08:03:29;;;;;;;4.90;1.23;;;9.10;99.90;;;;;;4988773;28;20218;-83
2023/12/26 08:05:54;;;;;;;1.80;0.77;;;9.20;99.90;;;;;;4987677;28;20249;-84
2023/12/26 08:08:20;;;;;;;1.33;0.80;;;9.20;99.90;;;;;;4988878;28;20222;-83
2023/12/26 08:10:47;;;;;;;8.73;2.10;;;9.30;99.90;;;;;;4987724;28;20847;-83
2023/12/26 08:13:13;;;;;;;3.25;0.90;;;9.30;99.90;;;;;;4988690;28;20187;-83
2023/12/26 08:15:39;;;;;;;3.70;1.05;;;9.30;99.90;;;;;;4989050;28;20194;-83
2023/12/26 08:18:04;;;;;;;2.60;1.10;;;9.30;99.90;;;;;;4989792;28;20203;-83
2023/12/26 08:20:33;;;;;;;0.70;0.50;;;9.30;99.90;;;;;;4990634;28;20176;-83
2023/12/26 08:22:58;;;;;;;0.55;0.55;;;9.30;99.90;;;;;;4980362;28;20179;-83
2023/12/26 08:25:24;;;;;;;0.60;0.50;;;9.30;99.90;;;;;;4970571;28;20279;-83
2023/12/26 08:27:49;;;;;;;1.03;0.93;;;9.30;99.90;;;;;;4965949;28;20179;-83
2023/12/26 08:30:16;;;;;;;1.37;0.43;;;9.30;99.90;;;;;;4982158;28;20248;-83
2023/12/26 08:32:41;;;;;;;9.82;0.90;;;9.40;99.90;;;;;;5002349;28;20194;-84
2023/12/26 08:35:07;;;;;;;1.83;0.60;;;9.30;99.90;;;;;;4985188;28;20223;-84
2023/12/26 08:37:32;;;;;;;2.00;0.50;;;9.40;99.90;;;;;;4982640;28;20201;-84
2023/12/26 08:39:58;;;;;;;1.00;0.70;;;9.40;99.90;;;;;;4989777;28;20438;-84
2023/12/26 08:42:23;;;;;;;1.00;0.70;;;9.30;99.90;;;;;;4988416;28;20191;-83
2023/12/26 08:44:49;;;;;;;0.70;0.50;;;9.30;99.90;;;;;;4987051;28;20585;-84
2023/12/26 08:47:14;;;;;;;6.77;1.07;;;9.40;99.90;;;;;;4987833;28;20195;-84
2023/12/26 08:49:40;;;;;;;2.10;0.73;;;9.30;99.90;;;;;;4989590;28;20201;-83
2023/12/26 08:52:05;;;;;;;1.83;1.20;;;9.30;99.90;;;;;;4984753;28;20243;-83
2023/12/26 08:54:31;;;;;;;1.37;0.77;;;9.30;99.90;;;;;;4983708;28;20298;-83
2023/12/26 08:56:56;;;;;;;1.37;0.60;;;9.30;99.90;;;;;;4982578;28;20228;-83
2023/12/26 08:59:22;;;;;;;0.57;0.53;;;9.30;99.90;;;;;;4986319;28;20214;-83
2023/12/26 09:01:48;;;;;;;2.37;0.57;;;9.30;99.90;;;;;;4987483;28;20187;-84
2023/12/26 09:04:13;;;;;;;6.30;0.80;;;9.30;99.90;;;;;;4987154;28;20682;-83
2023/12/26 09:06:39;;;;;;;1.20;0.57;;;9.30;99.90;;;;;;4985093;28;20695;-84
2023/12/26 09:09:05;;;;;;;0.67;0.63;;;9.30;99.90;;;;;;4984364;28;20350;-83
2023/12/26 09:11:31;;;;;;;3.55;0.88;;;9.30;99.90;;;;;;4986564;28;20183;-83
2023/12/26 09:13:56;;;;;;;1.83;0.80;;;9.30;99.90;;;;;;4989406;28;20225;-83
2023/12/26 09:16:22;;;;;;;2.80;0.70;;;9.20;99.90;;;;;;4990967;28;20204;-83
2023/12/26 09:18:47;;;;;;;0.40;0.37;;;9.20;99.90;;;;;;4992502;28;21320;-84
2023/12/26 09:21:13;;;;;;;0.50;0.47;;;9.30;99.90;;;;;;4975416;28;20189;-83
2023/12/26 09:23:39;;;;;;;1.17;0.50;;;;;;;;;;4988949;28;20279;-84
2023/12/26 09:26:05;;;;;;;0.77;0.77;;;9.30;99.90;;;;;;5004566;28;20219;-86
2023/12/26 09:28:31;;;;;;;5.93;0.67;;;9.20;99.90;;;;;;5000553;28;20180;-84
2023/12/26 09:30:57;;;;;;;1.65;1.55;;;9.20;99.90;;;;;;4983169;28;20197;-85
2023/12/26 09:33:24;;;;;;;1.67;0.57;;;9.30;99.90;;;;;;4977373;28;20205;-84
2023/12/26 09:35:50;;;;;;;7.93;0.80;;;9.30;99.90;;;;;;4996825;28;20646;-85
2023/12/26 09:38:16;;;;;;;0.80;0.60;;;9.30;99.90;;;;;;4998131;28;20265;-84
2023/12/26 09:40:41;;;;;;;1.17;0.53;;;9.30;99.90;;;;;;4989181;28;20171;-84
2023/12/26 09:43:07;;;;;;;0.97;0.97;;;9.20;99.90;;;;;;4979825;28;20178;-84
2023/12/26 09:45:33;;;;;;;1.13;0.80;;;9.20;99.90;;;;;;4998877;28;20252;-86
2023/12/26 09:47:59;;;;;;;1.50;1.38;;;9.20;99.90;;;;;;4975734;28;20214;-86
2023/12/26 09:50:25;;;;;;;5.10;1.87;;;9.30;99.90;;;;;;4964429;28;20203;-83
2023/12/26 09:52:53;;;;;;;1.90;1.23;;;9.30;99.90;;;;;;4992534;28;20450;-84
2023/12/26 09:55:20;;;;;;;0.80;0.70;;;9.30;99.90;;;;;;4980548;28;20442;-84
2023/12/26 09:57:46;;;;;;;2.08;0.52;;;9.30;99.90;;;;;;5037484;28;20188;-83
2023/12/26 10:00:12;;;;;;;1.57;0.67;;;9.40;99.90;;;;;;4998813;28;20170;-84
2023/12/26 10:02:37;;;;;;;1.35;1.25;;;9.40;99.90;;;;;;5005227;28;20482;-84
2023/12/26 10:05:04;;;;;;;2.30;0.80;;;9.40;99.90;;;;;;4979137;28;20229;-83
2023/12/26 10:07:29;;;;;;;3.83;1.30;;;9.40;99.90;;;;;;5000370;28;20642;-84
2023/12/26 10:09:55;;;;;;;2.53;0.57;;;9.40;99.90;;;;;;4995712;28;20191;-84
2023/12/26 10:12:27;;;;;;;4.05;1.48;;;9.40;99.90;;;;;;4980746;28;20179;-84
2023/12/26 10:15:02;;;;;;;2.80;1.05;;;9.50;99.90;;;;;;5000630;28;20259;-84
2023/12/26 10:17:28;;;;;;;1.27;0.57;;;9.50;99.90;;;;;;5008696;28;20170;-83
2023/12/26 10:20:03;;;;;;;3.63;0.90;;;9.60;99.90;;;;;;4997603;28;20677;-84
2023/12/26 10:22:32;;;;;;;0.60;0.60;;;9.60;99.90;;;;;;4999385;28;20573;-82
2023/12/26 10:25:00;;;;;;;2.25;0.93;;;9.60;99.90;;;;;;4993481;28;20207;-84
2023/12/26 10:27:26;;;;;;;1.30;0.93;;;9.50;99.90;;;;;;4979759;28;20183;-85
2023/12/26 10:29:55;;;;;;;1.97;0.53;;;9.50;99.90;;;;;;5014823;28;20187;-85
2023/12/26 10:32:25;;;;;;;4.93;0.90;;;9.40;99.90;;;;;;4999558;28;20434;-83
2023/12/26 10:34:52;;;;;;;1.08;0.70;;;9.40;99.90;;;;;;4983321;28;20218;-84
2023/12/26 10:37:21;;;;;;;0.75;0.75;;;9.40;99.90;;;;;;4984401;28;20270;-84
2023/12/26 10:39:47;;;;;;;5.05;1.17;;;9.30;99.90;;;;;;5001641;28;20195;-82
2023/12/26 10:42:17;;;;;;;2.40;1.00;;;9.30;99.90;;;;;;4999559;28;20707;-85
2023/12/26 10:44:45;;;;;;;5.50;0.75;;;9.30;99.90;;;;;;4984235;28;20454;-85
2023/12/26 10:47:12;;;;;;;0.88;0.50;;;9.30;99.90;;;;;;4969445;28;20233;-84
2023/12/26 10:49:41;;;;;;;3.67;0.85;;;9.30;99.90;;;;;;4982248;28;20194;-85
2023/12/26 10:52:09;;;;;;;0.80;0.60;;;9.40;99.90;;;;;;4994825;28;20194;-85
2023/12/26 10:54:38;;;;;;;2.30;0.93;;;9.60;99.90;;;;;;4998161;28;20206;-84
2023/12/26 10:57:06;;;;;;;4.85;0.95;;;9.80;99.90;;;;;;5012997;28;20226;-84
2023/12/26 10:59:32;;;;;;;3.17;0.75;;;10.00;99.90;;;;;;4987433;28;20556;-84
2023/12/26 11:01:57;;;;;;;0.70;0.67;;;10.00;99.90;;;;;;5005681;28;20262;-82
2023/12/26 11:04:23;;;;;;;0.50;0.50;;;10.00;99.90;;;;;;5012784;28;20537;-83
2023/12/26 11:06:49;;;;;;;1.10;0.63;;;9.80;99.90;;;;;;5001442;28;20180;-83
2023/12/26 11:09:15;;;;;;;0.53;0.53;;;9.70;99.90;;;;;;5000224;28;20269;-82
2023/12/26 11:11:41;;;;;;;2.83;1.57;;;9.80;99.90;;;;;;5000320;28;20415;-83
2023/12/26 11:14:07;;;;;;;1.85;0.98;;;9.70;99.90;;;;;;4999606;28;20199;-83
2023/12/26 11:16:35;;;;;;;1.60;0.80;;;9.60;99.90;;;;;;5000053;28;20210;-83
2023/12/26 11:19:01;;;;;;;1.77;0.77;;;9.40;99.90;;;;;;5001318;28;20464;-83
2023/12/26 11:21:29;;;;;;;0.70;0.50;;;9.30;99.90;;;;;;5001272;28;20192;-82
2023/12/26 11:23:56;;;;;;;5.00;0.50;;;9.30;99.90;;;;;;5057076;28;20216;-82
2023/12/26 11:26:21;;;;;;;3.00;1.35;;;9.40;99.90;;;;;;4995709;28;20179;-82
2023/12/26 11:28:48;;;;;;;3.30;1.40;;;9.40;99.90;;;;;;4998194;28;20239;-82
2023/12/26 11:31:15;;;;;;;2.50;0.80;;;9.30;99.90;;;;;;4978899;28;20186;-82
2023/12/26 11:33:41;;;;;;;1.38;0.85;;;9.30;99.90;;;;;;4999599;28;20398;-83
2023/12/26 11:36:08;;;;;;;1.00;0.60;;;9.40;99.90;;;;;;4997565;28;20200;-82
2023/12/26 11:38:36;;;;;;;3.33;1.25;;;9.50;99.90;;;;;;4992766;28;20221;-82
2023/12/26 11:41:03;;;;;;;2.00;0.90;;;9.50;99.90;;;;;;4998216;28;20176;-83
2023/12/26 11:43:29;;;;;;;4.28;0.93;;;9.60;99.90;;;;;;5007191;28;20209;-83
2023/12/26 11:45:54;;;;;;;2.60;0.70;;;9.60;99.90;;;;;;5000135;28;20168;-82
2023/12/26 11:48:20;;;;;;;1.00;0.60;;;9.70;99.90;;;;;;5002985;28;20184;-82
2023/12/26 11:50:45;;;;;;;2.97;1.03;;;9.80;99.90;;;;;;4979376;28;20587;-83
2023/12/26 11:53:12;;;;;;;1.13;0.70;;;9.60;99.90;;;;;;4996323;28;20202;-84
2023/12/26 11:55:37;;;;;;;0.80;0.75;;;9.60;99.90;;;;;;4995996;28;20222;-82
2023/12/26 11:58:03;;;;;;;1.63;0.83;;;9.50;99.90;;;;;;5008293;28;20207;-85
2023/12/26 12:00:28;;;;;;;1.37;1.13;;;9.50;99.90;;;;;;4991334;28;20686;-86
2023/12/26 12:02:54;;;;;;;1.37;0.73;;;9.50;99.90;;;;;;4975755;28;20214;-83
2023/12/26 12:05:19;;;;;;;1.23;0.70;;;9.40;99.90;;;;;;4982276;28;20277;-83
2023/12/26 12:08:23;;;;;;;1.00;0.50;;;9.40;99.90;;;;;;4976281;28;20194;-83
2023/12/26 12:11:08;;;;;;;2.22;1.10;;;9.50;99.90;;;;;;4988417;28;20515;-83
2023/12/26 12:13:34;;;;;;;5.35;1.42;;;9.60;99.90;;;;;;4971004;28;20218;-83
2023/12/26 12:15:59;;;;;;;0.97;0.67;;;9.60;99.90;;;;;;4986426;28;20788;-83
2023/12/26 12:18:25;;;;;;;0.40;0.30;;;9.60;99.90;;;;;;4985297;28;20210;-84
2023/12/26 12:20:50;;;;;;;1.43;1.00;;;9.60;99.90;;;;;;4973398;28;20186;-84
2023/12/26 12:23:16;;;;;;;1.83;0.73;;;9.70;99.90;;;;;;4970369;28;20270;-83
2023/12/26 12:25:44;;;;;;;1.60;1.27;;;9.70;99.90;;;;;;4983528;28;20203;-83
2023/12/26 12:28:09;;;;;;;3.95;1.10;;;9.80;99.90;;;;;;4980796;28;20726;-83
2023/12/26 12:30:36;;;;;;;1.83;1.07;;;9.60;99.90;;;;;;5000459;28;20354;-84
2023/12/26 12:33:21;;;;;;;0.40;0.40;;;9.50;99.90;;;;;;4979421;28;20557;-84
2023/12/26 12:35:47;;;;;;;0.55;0.40;;;9.60;99.90;;;;;;4960530;28;21383;-84
2023/12/26 12:38:17;;;;;;;1.70;0.40;;;9.60;99.90;;;;;;4966654;28;20215;-84
2023/12/26 12:40:46;;;;;;;0.60;0.60;;;9.60;99.90;;;;;;4965862;28;20438;-84
2023/12/26 12:43:12;;;;;;;3.83;1.30;;;9.60;99.90;;;;;;4985729;28;20205;-83
2023/12/26 12:45:38;;;;;;;0.50;0.50;;;9.60;99.90;;;;;;4967337;28;20187;-84
2023/12/26 12:48:03;;;;;;;0.60;0.40;;;9.60;99.90;;;;;;4985193;28;20183;-84
2023/12/26 12:50:30;;;;;;;3.60;0.60;;;9.60;99.90;;;;;;4977116;28;20236;-83
2023/12/26 12:52:56;;;;;;;1.20;1.10;;;9.60;99.90;;;;;;4985029;28;20195;-83